sensor_id;sensor_type;location;lat;lon;timestamp;temperature;humidity
1786;DHT22;890;48.158;11.540;2022-07-06T00:01:27;20.90;56.10
1786;DHT22;890;48.158;11.540;2022-07-06T00:03:52;20.80;56.20
1786;DHT22;890;48.158;11.540;2022-07-06T00:06:18;20.90;56.50
1786;DHT22;890;48.158;11.540;2022-07-06T00:08:43;20.80;56.60
1786;DHT22;890;48.158;11.540;2022-07-06T00:11:09;20.80;56.80
1786;DHT22;890;48.158;11.540;2022-07-06T00:13:36;20.90;56.90
1786;DHT22;890;48.158;11.540;2022-07-06T00:16:01;21.00;56.90
1786;DHT22;890;48.158;11.540;2022-07-06T00:18:27;21.00;56.90
1786;DHT22;890;48.158;11.540;2022-07-06T00:20:53;20.90;57.10
1786;DHT22;890;48.158;11.540;2022-07-06T00:23:18;20.90;57.30
1786;DHT22;890;48.158;11.540;2022-07-06T00:25:44;20.90;58.10
1786;DHT22;890;48.158;11.540;2022-07-06T00:28:10;20.90;57.80
1786;DHT22;890;48.158;11.540;2022-07-06T00:30:36;21.00;57.80
1786;DHT22;890;48.158;11.540;2022-07-06T00:33:01;21.10;57.90
1786;DHT22;890;48.158;11.540;2022-07-06T00:35:27;21.10;57.80
1786;DHT22;890;48.158;11.540;2022-07-06T00:37:53;21.10;57.80
1786;DHT22;890;48.158;11.540;2022-07-06T00:40:19;21.10;57.90
1786;DHT22;890;48.158;11.540;2022-07-06T00:42:46;21.10;57.90
1786;DHT22;890;48.158;11.540;2022-07-06T00:45:13;21.10;57.90
1786;DHT22;890;48.158;11.540;2022-07-06T00:47:39;21.10;58.10
1786;DHT22;890;48.158;11.540;2022-07-06T00:50:06;21.10;58.20
1786;DHT22;890;48.158;11.540;2022-07-06T00:52:45;21.10;58.30
1786;DHT22;890;48.158;11.540;2022-07-06T00:55:12;21.00;58.30
1786;DHT22;890;48.158;11.540;2022-07-06T00:57:39;21.10;58.50
1786;DHT22;890;48.158;11.540;2022-07-06T01:00:07;21.10;58.60
1786;DHT22;890;48.158;11.540;2022-07-06T01:02:35;21.10;58.50
1786;DHT22;890;48.158;11.540;2022-07-06T01:05:04;21.10;58.50
1786;DHT22;890;48.158;11.540;2022-07-06T01:07:30;21.10;58.40
1786;DHT22;890;48.158;11.540;2022-07-06T01:09:56;21.10;58.60
1786;DHT22;890;48.158;11.540;2022-07-06T01:12:23;21.10;58.80
1786;DHT22;890;48.158;11.540;2022-07-06T01:14:49;21.10;58.90
1786;DHT22;890;48.158;11.540;2022-07-06T01:17:15;21.10;58.80
1786;DHT22;890;48.158;11.540;2022-07-06T01:19:42;21.00;58.80
1786;DHT22;890;48.158;11.540;2022-07-06T01:22:08;20.90;59.00
1786;DHT22;890;48.158;11.540;2022-07-06T01:24:38;20.90;59.40
1786;DHT22;890;48.158;11.540;2022-07-06T01:27:04;20.80;59.60
1786;DHT22;890;48.158;11.540;2022-07-06T01:29:33;20.70;59.90
1786;DHT22;890;48.158;11.540;2022-07-06T01:31:59;20.60;60.00
1786;DHT22;890;48.158;11.540;2022-07-06T01:34:24;20.50;60.30
1786;DHT22;890;48.158;11.540;2022-07-06T01:36:50;20.40;60.50
1786;DHT22;890;48.158;11.540;2022-07-06T01:39:16;20.40;60.80
1786;DHT22;890;48.158;11.540;2022-07-06T01:41:41;20.40;60.90
1786;DHT22;890;48.158;11.540;2022-07-06T01:44:07;20.40;61.10
1786;DHT22;890;48.158;11.540;2022-07-06T01:46:32;20.40;61.20
1786;DHT22;890;48.158;11.540;2022-07-06T01:48:58;20.30;61.50
1786;DHT22;890;48.158;11.540;2022-07-06T01:51:24;20.20;61.70
1786;DHT22;890;48.158;11.540;2022-07-06T01:53:51;20.10;61.70
1786;DHT22;890;48.158;11.540;2022-07-06T01:56:17;20.10;61.80
1786;DHT22;890;48.158;11.540;2022-07-06T01:58:45;20.00;61.90
1786;DHT22;890;48.158;11.540;2022-07-06T02:01:12;20.00;62.10
1786;DHT22;890;48.158;11.540;2022-07-06T02:03:38;19.90;62.10
1786;DHT22;890;48.158;11.540;2022-07-06T02:06:05;20.00;62.00
1786;DHT22;890;48.158;11.540;2022-07-06T02:08:31;20.10;62.00
1786;DHT22;890;48.158;11.540;2022-07-06T02:10:57;20.10;61.90
1786;DHT22;890;48.158;11.540;2022-07-06T02:13:23;20.20;61.80
1786;DHT22;890;48.158;11.540;2022-07-06T02:15:49;20.20;61.70
1786;DHT22;890;48.158;11.540;2022-07-06T02:18:14;20.10;61.70
1786;DHT22;890;48.158;11.540;2022-07-06T02:20:40;20.10;61.80
1786;DHT22;890;48.158;11.540;2022-07-06T02:23:05;20.10;61.90
1786;DHT22;890;48.158;11.540;2022-07-06T02:25:31;20.00;62.00
1786;DHT22;890;48.158;11.540;2022-07-06T02:27:56;20.10;62.10
1786;DHT22;890;48.158;11.540;2022-07-06T02:30:22;20.10;61.90
1786;DHT22;890;48.158;11.540;2022-07-06T02:32:48;20.10;62.10
1786;DHT22;890;48.158;11.540;2022-07-06T02:35:13;20.00;62.00
1786;DHT22;890;48.158;11.540;2022-07-06T02:37:39;19.90;62.30
1786;DHT22;890;48.158;11.540;2022-07-06T02:40:05;19.90;62.30
1786;DHT22;890;48.158;11.540;2022-07-06T02:42:31;19.90;62.50
1786;DHT22;890;48.158;11.540;2022-07-06T02:44:56;19.90;62.50
1786;DHT22;890;48.158;11.540;2022-07-06T02:47:22;19.80;62.70
1786;DHT22;890;48.158;11.540;2022-07-06T02:49:48;19.80;62.70
1786;DHT22;890;48.158;11.540;2022-07-06T02:52:13;19.80;62.90
1786;DHT22;890;48.158;11.540;2022-07-06T02:54:39;19.80;63.00
1786;DHT22;890;48.158;11.540;2022-07-06T02:57:04;19.90;62.90
1786;DHT22;890;48.158;11.540;2022-07-06T02:59:30;19.80;62.90
1786;DHT22;890;48.158;11.540;2022-07-06T03:01:55;19.90;63.00
1786;DHT22;890;48.158;11.540;2022-07-06T03:04:21;19.80;63.10
1786;DHT22;890;48.158;11.540;2022-07-06T03:06:47;19.70;63.40
1786;DHT22;890;48.158;11.540;2022-07-06T03:09:12;19.60;63.70
1786;DHT22;890;48.158;11.540;2022-07-06T03:11:38;19.50;64.00
1786;DHT22;890;48.158;11.540;2022-07-06T03:14:04;19.40;64.50
1786;DHT22;890;48.158;11.540;2022-07-06T03:16:30;19.40;64.90
1786;DHT22;890;48.158;11.540;2022-07-06T03:18:56;19.40;65.00
1786;DHT22;890;48.158;11.540;2022-07-06T03:21:25;19.50;65.30
1786;DHT22;890;48.158;11.540;2022-07-06T03:23:51;19.50;65.50
1786;DHT22;890;48.158;11.540;2022-07-06T03:26:16;19.50;65.60
1786;DHT22;890;48.158;11.540;2022-07-06T03:28:42;19.60;65.80
1786;DHT22;890;48.158;11.540;2022-07-06T03:31:08;19.60;65.80
1786;DHT22;890;48.158;11.540;2022-07-06T03:33:34;19.50;65.80
1786;DHT22;890;48.158;11.540;2022-07-06T03:35:59;19.60;66.20
1786;DHT22;890;48.158;11.540;2022-07-06T03:38:25;19.50;66.20
1786;DHT22;890;48.158;11.540;2022-07-06T03:40:51;19.50;66.30
1786;DHT22;890;48.158;11.540;2022-07-06T03:43:16;19.50;66.40
1786;DHT22;890;48.158;11.540;2022-07-06T03:45:42;19.50;66.70
1786;DHT22;890;48.158;11.540;2022-07-06T03:48:08;19.50;66.90
1786;DHT22;890;48.158;11.540;2022-07-06T03:50:33;19.50;66.90
1786;DHT22;890;48.158;11.540;2022-07-06T03:52:59;19.50;67.00
1786;DHT22;890;48.158;11.540;2022-07-06T03:55:25;19.50;67.10
1786;DHT22;890;48.158;11.540;2022-07-06T03:57:50;19.60;67.20
1786;DHT22;890;48.158;11.540;2022-07-06T04:00:16;19.50;67.10
1786;DHT22;890;48.158;11.540;2022-07-06T04:02:42;19.60;67.30
1786;DHT22;890;48.158;11.540;2022-07-06T04:05:08;19.50;67.30
1786;DHT22;890;48.158;11.540;2022-07-06T04:07:33;19.60;67.50
1786;DHT22;890;48.158;11.540;2022-07-06T04:09:59;19.60;67.70
1786;DHT22;890;48.158;11.540;2022-07-06T04:12:24;19.60;67.60
1786;DHT22;890;48.158;11.540;2022-07-06T04:14:50;19.70;67.70
1786;DHT22;890;48.158;11.540;2022-07-06T04:17:15;19.70;67.70
1786;DHT22;890;48.158;11.540;2022-07-06T04:20:00;19.70;67.80
1786;DHT22;890;48.158;11.540;2022-07-06T04:22:25;19.70;67.80
1786;DHT22;890;48.158;11.540;2022-07-06T04:24:51;19.70;67.90
1786;DHT22;890;48.158;11.540;2022-07-06T04:27:16;19.80;68.10
1786;DHT22;890;48.158;11.540;2022-07-06T04:29:42;19.80;68.10
1786;DHT22;890;48.158;11.540;2022-07-06T04:32:07;19.90;68.10
1786;DHT22;890;48.158;11.540;2022-07-06T04:34:33;19.80;68.10
1786;DHT22;890;48.158;11.540;2022-07-06T04:36:59;19.80;68.00
1786;DHT22;890;48.158;11.540;2022-07-06T04:39:24;19.70;68.20
1786;DHT22;890;48.158;11.540;2022-07-06T04:41:50;19.60;68.70
1786;DHT22;890;48.158;11.540;2022-07-06T04:44:15;19.50;69.10
1786;DHT22;890;48.158;11.540;2022-07-06T04:46:41;19.50;69.40
1786;DHT22;890;48.158;11.540;2022-07-06T04:49:06;19.60;69.50
1786;DHT22;890;48.158;11.540;2022-07-06T04:51:32;19.60;69.50
1786;DHT22;890;48.158;11.540;2022-07-06T04:53:58;19.70;69.70
1786;DHT22;890;48.158;11.540;2022-07-06T04:56:24;19.80;69.80
1786;DHT22;890;48.158;11.540;2022-07-06T04:58:49;19.90;69.80
1786;DHT22;890;48.158;11.540;2022-07-06T05:01:15;20.00;69.70
1786;DHT22;890;48.158;11.540;2022-07-06T05:03:40;20.00;69.90
1786;DHT22;890;48.158;11.540;2022-07-06T05:06:07;19.90;69.90
1786;DHT22;890;48.158;11.540;2022-07-06T05:08:33;20.00;70.10
1786;DHT22;890;48.158;11.540;2022-07-06T05:10:59;20.00;69.90
1786;DHT22;890;48.158;11.540;2022-07-06T05:13:25;19.80;70.00
1786;DHT22;890;48.158;11.540;2022-07-06T05:15:51;19.80;70.20
1786;DHT22;890;48.158;11.540;2022-07-06T05:18:16;19.80;70.10
1786;DHT22;890;48.158;11.540;2022-07-06T05:20:42;19.90;70.30
1786;DHT22;890;48.158;11.540;2022-07-06T05:23:08;20.00;70.20
1786;DHT22;890;48.158;11.540;2022-07-06T05:25:33;20.00;70.20
1786;DHT22;890;48.158;11.540;2022-07-06T05:27:59;20.10;70.30
1786;DHT22;890;48.158;11.540;2022-07-06T05:30:25;20.20;70.00
1786;DHT22;890;48.158;11.540;2022-07-06T05:32:51;20.30;69.70
1786;DHT22;890;48.158;11.540;2022-07-06T05:35:17;20.30;69.10
1786;DHT22;890;48.158;11.540;2022-07-06T05:37:43;20.50;68.70
1786;DHT22;890;48.158;11.540;2022-07-06T05:40:09;20.50;68.50
1786;DHT22;890;48.158;11.540;2022-07-06T05:42:35;20.60;68.00
1786;DHT22;890;48.158;11.540;2022-07-06T05:45:00;20.80;67.90
1786;DHT22;890;48.158;11.540;2022-07-06T05:47:26;20.90;67.60
1786;DHT22;890;48.158;11.540;2022-07-06T05:50:10;20.90;67.40
1786;DHT22;890;48.158;11.540;2022-07-06T05:52:40;20.90;67.20
1786;DHT22;890;48.158;11.540;2022-07-06T05:55:07;20.90;67.10
1786;DHT22;890;48.158;11.540;2022-07-06T05:57:32;20.90;67.10
1786;DHT22;890;48.158;11.540;2022-07-06T05:59:58;20.90;66.80
1786;DHT22;890;48.158;11.540;2022-07-06T06:02:24;20.90;66.50
1786;DHT22;890;48.158;11.540;2022-07-06T06:04:49;20.90;66.40
1786;DHT22;890;48.158;11.540;2022-07-06T06:07:15;20.90;66.60
1786;DHT22;890;48.158;11.540;2022-07-06T06:09:40;21.00;66.50
1786;DHT22;890;48.158;11.540;2022-07-06T06:12:06;21.00;66.40
1786;DHT22;890;48.158;11.540;2022-07-06T06:14:32;21.00;66.20
1786;DHT22;890;48.158;11.540;2022-07-06T06:16:58;21.00;66.30
1786;DHT22;890;48.158;11.540;2022-07-06T06:19:24;21.00;66.00
1786;DHT22;890;48.158;11.540;2022-07-06T06:21:50;21.10;66.00
1786;DHT22;890;48.158;11.540;2022-07-06T06:24:17;21.10;66.10
1786;DHT22;890;48.158;11.540;2022-07-06T06:26:42;21.20;65.30
1786;DHT22;890;48.158;11.540;2022-07-06T06:29:08;21.20;65.00
1786;DHT22;890;48.158;11.540;2022-07-06T06:31:34;21.20;64.30
1786;DHT22;890;48.158;11.540;2022-07-06T06:33:59;21.20;63.80
1786;DHT22;890;48.158;11.540;2022-07-06T06:36:25;21.20;63.20
1786;DHT22;890;48.158;11.540;2022-07-06T06:38:51;21.30;63.20
1786;DHT22;890;48.158;11.540;2022-07-06T06:41:16;21.40;62.90
1786;DHT22;890;48.158;11.540;2022-07-06T06:43:43;21.40;62.60
1786;DHT22;890;48.158;11.540;2022-07-06T06:46:11;21.40;62.20
1786;DHT22;890;48.158;11.540;2022-07-06T06:48:37;21.40;62.30
1786;DHT22;890;48.158;11.540;2022-07-06T06:51:04;21.40;61.20
1786;DHT22;890;48.158;11.540;2022-07-06T06:53:29;21.40;60.70
1786;DHT22;890;48.158;11.540;2022-07-06T06:55:55;21.40;60.80
1786;DHT22;890;48.158;11.540;2022-07-06T06:58:21;21.40;60.90
1786;DHT22;890;48.158;11.540;2022-07-06T07:00:46;21.40;61.20
1786;DHT22;890;48.158;11.540;2022-07-06T07:03:13;21.50;61.00
1786;DHT22;890;48.158;11.540;2022-07-06T07:05:38;21.60;60.50
1786;DHT22;890;48.158;11.540;2022-07-06T07:08:04;21.80;60.60
1786;DHT22;890;48.158;11.540;2022-07-06T07:10:30;21.90;60.20
1786;DHT22;890;48.158;11.540;2022-07-06T07:12:56;22.10;59.90
1786;DHT22;890;48.158;11.540;2022-07-06T07:15:21;22.00;59.70
1786;DHT22;890;48.158;11.540;2022-07-06T07:17:47;22.00;59.80
1786;DHT22;890;48.158;11.540;2022-07-06T07:20:12;22.00;60.00
1786;DHT22;890;48.158;11.540;2022-07-06T07:22:38;22.00;59.30
1786;DHT22;890;48.158;11.540;2022-07-06T07:25:05;22.10;59.00
1786;DHT22;890;48.158;11.540;2022-07-06T07:27:30;22.20;58.80
1786;DHT22;890;48.158;11.540;2022-07-06T07:29:56;22.20;58.40
1786;DHT22;890;48.158;11.540;2022-07-06T07:32:21;22.30;58.00
1786;DHT22;890;48.158;11.540;2022-07-06T07:34:47;22.60;57.50
1786;DHT22;890;48.158;11.540;2022-07-06T07:37:13;22.60;57.30
1786;DHT22;890;48.158;11.540;2022-07-06T07:39:38;22.70;57.10
1786;DHT22;890;48.158;11.540;2022-07-06T07:42:04;22.80;57.00
1786;DHT22;890;48.158;11.540;2022-07-06T07:44:30;22.90;56.30
1786;DHT22;890;48.158;11.540;2022-07-06T07:46:55;23.00;55.80
1786;DHT22;890;48.158;11.540;2022-07-06T07:49:21;22.80;55.80
1786;DHT22;890;48.158;11.540;2022-07-06T07:51:50;22.80;55.90
1786;DHT22;890;48.158;11.540;2022-07-06T07:54:15;22.90;55.50
1786;DHT22;890;48.158;11.540;2022-07-06T07:56:41;22.80;55.50
1786;DHT22;890;48.158;11.540;2022-07-06T07:59:08;22.60;55.60
1786;DHT22;890;48.158;11.540;2022-07-06T08:01:33;22.60;55.70
1786;DHT22;890;48.158;11.540;2022-07-06T08:03:59;22.80;55.70
1786;DHT22;890;48.158;11.540;2022-07-06T08:06:24;22.90;55.60
1786;DHT22;890;48.158;11.540;2022-07-06T08:08:50;23.00;55.80
1786;DHT22;890;48.158;11.540;2022-07-06T08:11:16;23.00;55.20
1786;DHT22;890;48.158;11.540;2022-07-06T08:13:42;23.00;55.40
1786;DHT22;890;48.158;11.540;2022-07-06T08:16:07;23.00;55.70
1786;DHT22;890;48.158;11.540;2022-07-06T08:18:35;23.20;55.50
1786;DHT22;890;48.158;11.540;2022-07-06T08:21:03;23.40;55.10
1786;DHT22;890;48.158;11.540;2022-07-06T08:23:28;23.40;54.90
1786;DHT22;890;48.158;11.540;2022-07-06T08:25:54;23.50;55.00
1786;DHT22;890;48.158;11.540;2022-07-06T08:28:20;23.60;54.50
1786;DHT22;890;48.158;11.540;2022-07-06T08:30:45;23.60;54.50
1786;DHT22;890;48.158;11.540;2022-07-06T08:33:12;23.60;54.60
1786;DHT22;890;48.158;11.540;2022-07-06T08:35:37;23.60;54.70
1786;DHT22;890;48.158;11.540;2022-07-06T08:38:03;23.50;55.00
1786;DHT22;890;48.158;11.540;2022-07-06T08:40:34;23.60;55.20
1786;DHT22;890;48.158;11.540;2022-07-06T08:43:00;23.70;54.90
1786;DHT22;890;48.158;11.540;2022-07-06T08:45:26;23.80;54.40
1786;DHT22;890;48.158;11.540;2022-07-06T08:47:54;23.70;54.10
1786;DHT22;890;48.158;11.540;2022-07-06T08:50:20;23.70;54.30
1786;DHT22;890;48.158;11.540;2022-07-06T08:52:50;23.80;54.50
1786;DHT22;890;48.158;11.540;2022-07-06T08:55:17;23.80;54.20
1786;DHT22;890;48.158;11.540;2022-07-06T08:57:48;23.70;54.40
1786;DHT22;890;48.158;11.540;2022-07-06T09:00:14;23.70;54.20
1786;DHT22;890;48.158;11.540;2022-07-06T09:02:41;23.70;54.10
1786;DHT22;890;48.158;11.540;2022-07-06T09:05:08;23.90;54.10
1786;DHT22;890;48.158;11.540;2022-07-06T09:07:34;24.00;53.40
1786;DHT22;890;48.158;11.540;2022-07-06T09:10:02;24.10;53.00
1786;DHT22;890;48.158;11.540;2022-07-06T09:12:28;24.20;53.10
1786;DHT22;890;48.158;11.540;2022-07-06T09:14:57;24.30;53.30
1786;DHT22;890;48.158;11.540;2022-07-06T09:17:27;24.20;53.40
1786;DHT22;890;48.158;11.540;2022-07-06T09:19:54;24.10;53.40
1786;DHT22;890;48.158;11.540;2022-07-06T09:22:28;24.10;52.20
1786;DHT22;890;48.158;11.540;2022-07-06T09:25:03;24.00;51.60
1786;DHT22;890;48.158;11.540;2022-07-06T09:27:28;24.20;51.70
1786;DHT22;890;48.158;11.540;2022-07-06T09:29:54;24.30;51.80
1786;DHT22;890;48.158;11.540;2022-07-06T09:32:24;24.50;51.80
1786;DHT22;890;48.158;11.540;2022-07-06T09:34:49;24.60;51.10
1786;DHT22;890;48.158;11.540;2022-07-06T09:37:15;24.50;51.10
1786;DHT22;890;48.158;11.540;2022-07-06T09:39:43;24.50;51.40
1786;DHT22;890;48.158;11.540;2022-07-06T09:42:09;24.60;51.60
1786;DHT22;890;48.158;11.540;2022-07-06T09:44:36;24.90;51.20
1786;DHT22;890;48.158;11.540;2022-07-06T09:47:10;24.90;50.50
1786;DHT22;890;48.158;11.540;2022-07-06T09:49:38;25.00;50.40
1786;DHT22;890;48.158;11.540;2022-07-06T09:52:06;25.20;50.70
1786;DHT22;890;48.158;11.540;2022-07-06T09:54:35;25.00;50.20
1786;DHT22;890;48.158;11.540;2022-07-06T09:57:02;25.00;50.50
1786;DHT22;890;48.158;11.540;2022-07-06T09:59:30;25.10;50.80
1786;DHT22;890;48.158;11.540;2022-07-06T10:01:58;25.30;50.20
1786;DHT22;890;48.158;11.540;2022-07-06T10:04:25;25.40;50.00
1786;DHT22;890;48.158;11.540;2022-07-06T10:06:52;25.70;50.20
1786;DHT22;890;48.158;11.540;2022-07-06T10:09:19;26.10;50.20
1786;DHT22;890;48.158;11.540;2022-07-06T10:11:54;26.60;50.80
1786;DHT22;890;48.158;11.540;2022-07-06T10:14:22;27.30;49.60
1786;DHT22;890;48.158;11.540;2022-07-06T10:16:48;28.10;48.90
1786;DHT22;890;48.158;11.540;2022-07-06T10:19:15;28.50;48.30
1786;DHT22;890;48.158;11.540;2022-07-06T10:21:41;29.00;47.70
1786;DHT22;890;48.158;11.540;2022-07-06T10:24:08;29.80;47.00
1786;DHT22;890;48.158;11.540;2022-07-06T10:26:35;30.20;45.10
1786;DHT22;890;48.158;11.540;2022-07-06T10:29:03;30.30;44.20
1786;DHT22;890;48.158;11.540;2022-07-06T10:31:30;30.30;44.00
1786;DHT22;890;48.158;11.540;2022-07-06T10:33:57;30.50;44.40
1786;DHT22;890;48.158;11.540;2022-07-06T10:36:24;30.90;42.90
1786;DHT22;890;48.158;11.540;2022-07-06T10:38:51;31.30;41.30
1786;DHT22;890;48.158;11.540;2022-07-06T10:41:18;31.40;39.60
1786;DHT22;890;48.158;11.540;2022-07-06T10:43:47;31.20;40.00
1786;DHT22;890;48.158;11.540;2022-07-06T10:46:15;30.80;41.20
1786;DHT22;890;48.158;11.540;2022-07-06T10:48:43;30.90;41.10
1786;DHT22;890;48.158;11.540;2022-07-06T10:51:11;30.80;40.00
1786;DHT22;890;48.158;11.540;2022-07-06T10:53:38;31.00;39.40
1786;DHT22;890;48.158;11.540;2022-07-06T10:56:09;31.20;39.60
1786;DHT22;890;48.158;11.540;2022-07-06T10:58:48;31.30;40.40
1786;DHT22;890;48.158;11.540;2022-07-06T11:01:16;31.90;38.80
1786;DHT22;890;48.158;11.540;2022-07-06T11:06:09;31.80;38.00
1786;DHT22;890;48.158;11.540;2022-07-06T11:08:45;32.00;37.70
1786;DHT22;890;48.158;11.540;2022-07-06T11:14:05;32.60;37.40
1786;DHT22;890;48.158;11.540;2022-07-06T11:16:37;32.70;37.00
1786;DHT22;890;48.158;11.540;2022-07-06T11:21:45;33.20;36.70
1786;DHT22;890;48.158;11.540;2022-07-06T11:24:22;33.10;37.00
1786;DHT22;890;48.158;11.540;2022-07-06T11:26:51;33.60;36.20
1786;DHT22;890;48.158;11.540;2022-07-06T11:29:18;33.70;35.80
1786;DHT22;890;48.158;11.540;2022-07-06T11:31:47;33.40;35.90
1786;DHT22;890;48.158;11.540;2022-07-06T11:34:18;33.20;36.30
1786;DHT22;890;48.158;11.540;2022-07-06T11:36:44;33.20;35.90
1786;DHT22;890;48.158;11.540;2022-07-06T11:39:09;32.90;36.00
1786;DHT22;890;48.158;11.540;2022-07-06T11:41:35;32.80;36.30
1786;DHT22;890;48.158;11.540;2022-07-06T11:44:03;32.80;35.00
1786;DHT22;890;48.158;11.540;2022-07-06T11:46:33;32.20;34.40
1786;DHT22;890;48.158;11.540;2022-07-06T11:49:03;30.90;35.00
1786;DHT22;890;48.158;11.540;2022-07-06T11:51:31;30.00;36.20
1786;DHT22;890;48.158;11.540;2022-07-06T11:53:59;30.40;37.60
1786;DHT22;890;48.158;11.540;2022-07-06T11:56:26;31.20;36.60
1786;DHT22;890;48.158;11.540;2022-07-06T11:58:54;31.80;35.50
1786;DHT22;890;48.158;11.540;2022-07-06T12:01:21;31.20;34.60
1786;DHT22;890;48.158;11.540;2022-07-06T12:03:47;30.50;35.20
1786;DHT22;890;48.158;11.540;2022-07-06T12:06:18;30.40;35.80
1786;DHT22;890;48.158;11.540;2022-07-06T12:11:29;30.40;37.00
1786;DHT22;890;48.158;11.540;2022-07-06T12:13:57;31.30;36.20
1786;DHT22;890;48.158;11.540;2022-07-06T12:16:37;32.00;35.30
1786;DHT22;890;48.158;11.540;2022-07-06T12:19:04;32.40;34.30
1786;DHT22;890;48.158;11.540;2022-07-06T12:21:30;32.70;33.90
1786;DHT22;890;48.158;11.540;2022-07-06T12:23:56;33.10;33.20
1786;DHT22;890;48.158;11.540;2022-07-06T12:26:24;33.20;33.40
1786;DHT22;890;48.158;11.540;2022-07-06T12:29:05;33.10;33.00
1786;DHT22;890;48.158;11.540;2022-07-06T12:31:35;33.30;32.80
1786;DHT22;890;48.158;11.540;2022-07-06T12:34:02;32.80;32.30
1786;DHT22;890;48.158;11.540;2022-07-06T12:36:30;32.60;33.10
1786;DHT22;890;48.158;11.540;2022-07-06T12:38:56;32.70;33.20
1786;DHT22;890;48.158;11.540;2022-07-06T12:44:02;32.70;33.20
1786;DHT22;890;48.158;11.540;2022-07-06T12:46:33;32.90;33.20
1786;DHT22;890;48.158;11.540;2022-07-06T12:49:01;32.90;32.80
1786;DHT22;890;48.158;11.540;2022-07-06T12:51:27;32.40;33.30
1786;DHT22;890;48.158;11.540;2022-07-06T12:54:11;32.40;33.00
1786;DHT22;890;48.158;11.540;2022-07-06T12:56:36;32.50;33.10
1786;DHT22;890;48.158;11.540;2022-07-06T12:59:02;32.00;33.00
1786;DHT22;890;48.158;11.540;2022-07-06T13:01:27;31.30;33.60
1786;DHT22;890;48.158;11.540;2022-07-06T13:03:55;30.60;34.10
1786;DHT22;890;48.158;11.540;2022-07-06T13:06:33;29.80;34.70
1786;DHT22;890;48.158;11.540;2022-07-06T13:08:58;29.10;36.10
1786;DHT22;890;48.158;11.540;2022-07-06T13:11:24;29.00;36.10
1786;DHT22;890;48.158;11.540;2022-07-06T13:13:50;28.80;36.80
1786;DHT22;890;48.158;11.540;2022-07-06T13:16:15;28.50;37.00
1786;DHT22;890;48.158;11.540;2022-07-06T13:18:41;28.30;37.60
1786;DHT22;890;48.158;11.540;2022-07-06T13:21:07;28.10;37.20
1786;DHT22;890;48.158;11.540;2022-07-06T13:23:32;28.00;37.80
1786;DHT22;890;48.158;11.540;2022-07-06T13:25:58;27.90;38.00
1786;DHT22;890;48.158;11.540;2022-07-06T13:28:24;27.80;38.40
1786;DHT22;890;48.158;11.540;2022-07-06T13:30:49;27.70;38.90
1786;DHT22;890;48.158;11.540;2022-07-06T13:33:15;27.70;38.40
1786;DHT22;890;48.158;11.540;2022-07-06T13:35:41;27.40;38.20
1786;DHT22;890;48.158;11.540;2022-07-06T13:38:06;27.20;38.60
1786;DHT22;890;48.158;11.540;2022-07-06T13:40:32;27.20;38.70
1786;DHT22;890;48.158;11.540;2022-07-06T13:43:00;27.20;39.20
1786;DHT22;890;48.158;11.540;2022-07-06T13:45:25;27.20;38.90
1786;DHT22;890;48.158;11.540;2022-07-06T13:47:51;27.00;38.90
1786;DHT22;890;48.158;11.540;2022-07-06T13:50:17;26.90;39.00
1786;DHT22;890;48.158;11.540;2022-07-06T13:52:42;26.80;38.70
1786;DHT22;890;48.158;11.540;2022-07-06T13:55:08;26.80;38.80
1786;DHT22;890;48.158;11.540;2022-07-06T13:57:35;26.90;39.30
1786;DHT22;890;48.158;11.540;2022-07-06T14:00:01;26.90;39.70
1786;DHT22;890;48.158;11.540;2022-07-06T14:02:26;26.90;40.20
1786;DHT22;890;48.158;11.540;2022-07-06T14:04:52;26.90;40.40
1786;DHT22;890;48.158;11.540;2022-07-06T14:07:18;27.00;40.20
1786;DHT22;890;48.158;11.540;2022-07-06T14:09:44;27.00;39.60
1786;DHT22;890;48.158;11.540;2022-07-06T14:12:10;26.90;39.90
1786;DHT22;890;48.158;11.540;2022-07-06T14:14:36;26.90;40.20
1786;DHT22;890;48.158;11.540;2022-07-06T14:17:01;26.90;40.40
1786;DHT22;890;48.158;11.540;2022-07-06T14:19:28;27.00;40.30
1786;DHT22;890;48.158;11.540;2022-07-06T14:21:54;27.10;40.10
1786;DHT22;890;48.158;11.540;2022-07-06T14:24:20;27.10;40.10
1786;DHT22;890;48.158;11.540;2022-07-06T14:26:46;27.10;40.20
1786;DHT22;890;48.158;11.540;2022-07-06T14:29:11;27.20;40.20
1786;DHT22;890;48.158;11.540;2022-07-06T14:31:37;27.30;39.90
1786;DHT22;890;48.158;11.540;2022-07-06T14:34:03;27.30;39.50
1786;DHT22;890;48.158;11.540;2022-07-06T14:36:29;27.30;39.70
1786;DHT22;890;48.158;11.540;2022-07-06T14:38:54;27.10;39.40
1786;DHT22;890;48.158;11.540;2022-07-06T14:41:20;27.10;39.50
1786;DHT22;890;48.158;11.540;2022-07-06T14:43:45;27.20;39.50
1786;DHT22;890;48.158;11.540;2022-07-06T14:46:11;27.20;39.40
1786;DHT22;890;48.158;11.540;2022-07-06T14:48:37;27.30;39.60
1786;DHT22;890;48.158;11.540;2022-07-06T14:51:02;27.40;39.90
1786;DHT22;890;48.158;11.540;2022-07-06T14:53:28;27.40;39.20
1786;DHT22;890;48.158;11.540;2022-07-06T14:55:54;27.30;38.60
1786;DHT22;890;48.158;11.540;2022-07-06T14:58:20;27.10;39.00
1786;DHT22;890;48.158;11.540;2022-07-06T15:00:48;27.00;39.20
1786;DHT22;890;48.158;11.540;2022-07-06T15:03:13;27.00;39.20
1786;DHT22;890;48.158;11.540;2022-07-06T15:05:45;27.10;39.20
1786;DHT22;890;48.158;11.540;2022-07-06T15:08:14;27.20;39.00
1786;DHT22;890;48.158;11.540;2022-07-06T15:10:41;27.20;39.10
1786;DHT22;890;48.158;11.540;2022-07-06T15:13:07;27.30;39.20
1786;DHT22;890;48.158;11.540;2022-07-06T15:15:32;27.30;38.70
1786;DHT22;890;48.158;11.540;2022-07-06T15:17:58;27.30;38.60
1786;DHT22;890;48.158;11.540;2022-07-06T15:20:24;27.50;38.40
1786;DHT22;890;48.158;11.540;2022-07-06T15:22:49;27.50;38.50
1786;DHT22;890;48.158;11.540;2022-07-06T15:25:15;27.50;38.40
1786;DHT22;890;48.158;11.540;2022-07-06T15:27:40;27.50;38.70
1786;DHT22;890;48.158;11.540;2022-07-06T15:30:07;27.50;38.30
1786;DHT22;890;48.158;11.540;2022-07-06T15:32:33;27.30;38.40
1786;DHT22;890;48.158;11.540;2022-07-06T15:34:58;27.30;39.10
1786;DHT22;890;48.158;11.540;2022-07-06T15:37:24;27.30;38.30
1786;DHT22;890;48.158;11.540;2022-07-06T15:39:49;27.30;38.60
1786;DHT22;890;48.158;11.540;2022-07-06T15:42:15;27.20;38.70
1786;DHT22;890;48.158;11.540;2022-07-06T15:44:41;27.30;38.80
1786;DHT22;890;48.158;11.540;2022-07-06T15:47:07;27.40;38.70
1786;DHT22;890;48.158;11.540;2022-07-06T15:49:33;27.40;38.50
1786;DHT22;890;48.158;11.540;2022-07-06T15:51:58;27.30;38.30
1786;DHT22;890;48.158;11.540;2022-07-06T15:54:24;27.10;38.80
1786;DHT22;890;48.158;11.540;2022-07-06T15:56:50;27.10;39.00
1786;DHT22;890;48.158;11.540;2022-07-06T15:59:15;27.10;38.90
1786;DHT22;890;48.158;11.540;2022-07-06T16:01:41;27.10;39.00
1786;DHT22;890;48.158;11.540;2022-07-06T16:04:06;27.20;38.80
1786;DHT22;890;48.158;11.540;2022-07-06T16:06:33;27.20;38.40
1786;DHT22;890;48.158;11.540;2022-07-06T16:08:58;27.20;38.20
1786;DHT22;890;48.158;11.540;2022-07-06T16:11:24;27.10;38.00